createdAt,value
2016-01-21T00:00:23.740Z,18.06
2016-01-21T00:01:23.775Z,18.1
2016-01-21T00:02:23.840Z,18.04
2016-01-21T00:03:23.858Z,18.04
2016-01-21T00:04:23.892Z,18.07
2016-01-21T00:05:23.926Z,18.11
2016-01-21T00:06:24.116Z,18.04
2016-01-21T00:07:24.009Z,18.03
2016-01-21T00:08:24.044Z,18.07
2016-01-21T00:09:24.094Z,17.98
2016-01-21T00:10:24.127Z,18.03
2016-01-21T00:11:24.176Z,18.03
2016-01-21T00:12:24.210Z,18.04
2016-01-21T00:13:24.229Z,17.98
2016-01-21T00:14:24.278Z,18.03
2016-01-21T00:15:24.344Z,18.06
2016-01-21T00:16:24.362Z,17.96
2016-01-21T00:17:24.395Z,17.98
2016-01-21T00:18:24.429Z,18.02
2016-01-21T00:19:24.463Z,17.98
2016-01-21T00:20:24.560Z,18.02
2016-01-21T00:21:24.563Z,18.02
2016-01-21T00:22:24.596Z,17.98
2016-01-21T00:23:24.615Z,18.03
2016-01-21T00:24:24.664Z,18
2016-01-21T00:25:24.714Z,18.02
2016-01-21T00:26:24.741Z,18.02
2016-01-21T00:27:24.780Z,18.04
2016-01-21T00:28:24.818Z,18.03
2016-01-21T00:29:24.811Z,18.03
2016-01-21T00:30:24.834Z,17.96
2016-01-21T00:31:24.892Z,18.04
2016-01-21T00:32:24.907Z,17.95
2016-01-21T00:33:24.953Z,17.98
2016-01-21T00:34:25.343Z,18.02
2016-01-21T00:35:25.045Z,18.03
2016-01-21T00:36:25.046Z,18
2016-01-21T00:37:25.094Z,17.98
2016-01-21T00:38:25.126Z,17.96
2016-01-21T00:39:25.175Z,18.02
2016-01-21T00:40:25.207Z,18
2016-01-21T00:41:25.240Z,18.03
2016-01-21T00:42:25.273Z,18
2016-01-21T00:43:25.713Z,18
2016-01-21T00:44:25.371Z,18
2016-01-21T00:45:25.388Z,18.04
2016-01-21T00:46:25.422Z,18
2016-01-21T00:47:25.488Z,17.96
2016-01-21T00:48:25.506Z,18
2016-01-21T00:49:25.555Z,17.96
2016-01-21T00:50:25.574Z,17.95
2016-01-21T00:51:25.624Z,18.02
2016-01-21T00:52:25.657Z,18.04
2016-01-21T00:53:25.707Z,17.96
2016-01-21T00:54:25.725Z,17.96
2016-01-21T00:55:25.774Z,18
2016-01-21T00:56:25.824Z,18
2016-01-21T00:57:25.905Z,17.96
2016-01-21T00:58:25.955Z,18
2016-01-21T00:59:25.941Z,17.95
2016-01-21T01:00:25.976Z,17.98
2016-01-21T01:01:26.009Z,17.96
2016-01-21T01:02:26.059Z,17.94
2016-01-21T01:03:26.093Z,17.96
2016-01-21T01:04:26.112Z,17.96
2016-01-21T01:05:26.208Z,17.98
2016-01-21T01:06:26.226Z,18
2016-01-21T01:07:26.260Z,17.96
2016-01-21T01:08:26.278Z,17.94
2016-01-21T01:09:26.312Z,17.98
2016-01-21T01:10:26.362Z,17.92
2016-01-21T01:11:26.412Z,17.94
2016-01-21T01:12:26.430Z,18.03
2016-01-21T01:13:26.479Z,17.95
2016-01-21T01:14:26.545Z,17.96
2016-01-21T01:15:26.563Z,17.91
2016-01-21T01:16:26.611Z,17.91
2016-01-21T01:17:26.630Z,17.95
2016-01-21T01:18:26.649Z,17.98
2016-01-21T01:19:26.714Z,17.95
2016-01-21T01:20:26.780Z,17.96
2016-01-21T01:21:26.798Z,17.96
2016-01-21T01:22:26.832Z,17.98
2016-01-21T01:23:26.866Z,17.98
2016-01-21T01:24:26.899Z,17.94
2016-01-21T01:25:26.933Z,17.96
2016-01-21T01:26:26.811Z,18.02
2016-01-21T01:27:27.017Z,17.91
2016-01-21T01:28:27.489Z,18.03
2016-01-21T01:29:27.085Z,17.94
2016-01-21T01:30:27.118Z,17.94
2016-01-21T01:31:27.168Z,17.98
2016-01-21T01:32:27.218Z,17.98
2016-01-21T01:33:27.252Z,17.92
2016-01-21T01:34:27.302Z,17.92
2016-01-21T01:35:27.320Z,18
2016-01-21T01:36:27.369Z,17.96
2016-01-21T01:37:27.575Z,17.92
2016-01-21T01:38:27.437Z,17.95
2016-01-21T01:39:27.331Z,17.95
2016-01-21T01:40:27.551Z,17.95
2016-01-21T01:41:27.554Z,17.96
2016-01-21T01:42:27.573Z,17.95
2016-01-21T01:43:27.622Z,17.89
2016-01-21T01:44:27.672Z,17.95
2016-01-21T01:45:27.706Z,17.94
2016-01-21T01:46:27.756Z,17.94
2016-01-21T01:47:27.789Z,17.94
2016-01-21T01:48:27.823Z,17.91
2016-01-21T01:49:27.701Z,17.92
2016-01-21T01:50:27.908Z,17.94
2016-01-21T01:51:27.941Z,17.89
2016-01-21T01:52:27.991Z,17.89
2016-01-21T01:53:28.008Z,17.87
2016-01-21T01:54:28.058Z,17.91
2016-01-21T01:55:28.092Z,17.87
2016-01-21T01:56:28.142Z,17.89
2016-01-21T01:57:28.176Z,17.91
2016-01-21T01:58:28.224Z,17.92
2016-01-21T01:59:28.243Z,17.95
2016-01-21T02:00:28.277Z,17.92
2016-01-21T02:01:28.312Z,17.88
2016-01-21T02:02:28.377Z,17.87
2016-01-21T02:03:28.630Z,17.85
2016-01-21T02:04:28.445Z,17.92
2016-01-21T02:05:28.478Z,17.87
2016-01-21T02:06:28.512Z,17.94
2016-01-21T02:07:28.562Z,17.85
2016-01-21T02:08:28.612Z,17.89
2016-01-21T02:09:28.630Z,17.91
2016-01-21T02:10:28.665Z,17.95
2016-01-21T02:11:28.714Z,17.95
2016-01-21T02:12:28.778Z,17.82
2016-01-21T02:13:28.797Z,17.89
2016-01-21T02:14:28.831Z,17.91
2016-01-21T02:15:28.865Z,17.91
2016-01-21T02:16:28.898Z,17.89
2016-01-21T02:17:28.964Z,17.84
2016-01-21T02:18:28.998Z,17.87
2016-01-21T02:19:29.016Z,17.84
2016-01-21T02:20:29.066Z,17.91
2016-01-21T02:21:29.099Z,17.89
2016-01-21T02:22:29.118Z,17.94
2016-01-21T02:23:29.167Z,17.88
2016-01-21T02:24:29.202Z,17.87
2016-01-21T02:25:29.267Z,17.87
2016-01-21T02:26:29.300Z,17.88
2016-01-21T02:27:29.335Z,17.79
2016-01-21T02:28:29.353Z,17.87
2016-01-21T02:29:29.402Z,17.85
2016-01-21T02:30:29.468Z,17.87
2016-01-21T02:31:29.471Z,17.84
2016-01-21T02:32:29.521Z,17.84
2016-01-21T02:33:29.554Z,17.82
2016-01-21T02:34:29.604Z,17.89
2016-01-21T02:35:29.653Z,17.79
2016-01-21T02:36:29.671Z,17.87
2016-01-21T02:37:29.705Z,17.82
2016-01-21T02:38:29.740Z,17.89
2016-01-21T02:39:29.899Z,17.81
2016-01-21T02:40:29.837Z,17.87
2016-01-21T02:41:29.856Z,17.85
2016-01-21T02:42:29.906Z,17.85
2016-01-21T02:43:29.940Z,17.85
2016-01-21T02:44:29.990Z,17.91
2016-01-21T02:45:30.008Z,17.91
2016-01-21T02:46:30.058Z,17.91
2016-01-21T02:47:30.091Z,17.88
2016-01-21T02:48:30.141Z,17.92
2016-01-21T02:49:30.191Z,17.87
2016-01-21T02:50:30.225Z,17.87
2016-01-21T02:51:30.259Z,17.87
2016-01-21T02:52:30.292Z,17.95
2016-01-21T02:53:30.327Z,17.88
2016-01-21T02:54:30.375Z,17.89
2016-01-21T02:55:30.378Z,17.89
2016-01-21T02:56:30.444Z,17.92
2016-01-21T02:57:30.588Z,17.92
2016-01-21T02:58:30.527Z,17.98
2016-01-21T02:59:30.561Z,17.96
2016-01-21T03:00:30.627Z,17.95
2016-01-21T03:01:30.629Z,17.98
2016-01-21T03:02:30.694Z,17.91
2016-01-21T03:03:30.712Z,18
2016-01-21T03:04:30.746Z,17.96
2016-01-21T03:05:30.796Z,18.02
2016-01-21T03:06:30.846Z,17.94
2016-01-21T03:07:30.880Z,17.98
2016-01-21T03:08:30.898Z,17.98
2016-01-21T03:09:30.948Z,17.94
2016-01-21T03:10:30.981Z,17.96
2016-01-21T03:11:31.031Z,18
2016-01-21T03:12:31.049Z,17.95
2016-01-21T03:13:31.146Z,17.98
2016-01-21T03:14:31.179Z,17.94
2016-01-21T03:15:31.214Z,17.95
2016-01-21T03:16:31.217Z,18.02
2016-01-21T03:17:31.266Z,17.98
2016-01-21T03:18:31.300Z,17.96
2016-01-21T03:19:31.334Z,17.96
2016-01-21T03:20:31.367Z,18
2016-01-21T03:21:31.402Z,18.02
2016-01-21T03:22:31.451Z,18.03
2016-01-21T03:23:31.486Z,17.96
2016-01-21T03:24:31.519Z,18.02
2016-01-21T03:25:31.584Z,17.96
2016-01-21T03:26:31.586Z,17.92
2016-01-21T03:27:31.652Z,18
2016-01-21T03:28:31.671Z,18.03
2016-01-21T03:29:31.736Z,18.02
2016-01-21T03:30:31.755Z,18.02
2016-01-21T03:31:31.804Z,18.02
2016-01-21T03:32:31.821Z,17.94
2016-01-21T03:33:32.152Z,18.04
2016-01-21T03:34:31.905Z,18.04
2016-01-21T03:35:31.971Z,17.94
2016-01-21T03:36:31.989Z,17.98
2016-01-21T03:37:32.039Z,18.02
2016-01-21T03:38:32.073Z,17.98
2016-01-21T03:39:32.106Z,18
2016-01-21T03:40:32.156Z,18
2016-01-21T03:41:32.174Z,17.92
2016-01-21T03:42:32.240Z,17.96
2016-01-21T03:43:32.257Z,17.95
2016-01-21T03:44:32.307Z,18
2016-01-21T03:45:32.357Z,17.96
2016-01-21T03:46:32.375Z,17.98
2016-01-21T03:47:32.425Z,17.96
2016-01-21T03:48:32.458Z,17.91
2016-01-21T03:49:32.508Z,18
2016-01-21T03:50:32.526Z,17.92
2016-01-21T03:51:32.576Z,17.94
2016-01-21T03:52:32.625Z,17.94
2016-01-21T03:53:32.659Z,17.89
2016-01-21T03:54:32.678Z,17.89
2016-01-21T03:55:32.727Z,17.92
2016-01-21T03:56:32.761Z,17.91
2016-01-21T03:57:32.795Z,17.94
2016-01-21T03:58:32.845Z,17.88
2016-01-21T03:59:32.864Z,17.82
2016-01-21T04:00:32.944Z,17.91
2016-01-21T04:01:32.963Z,17.87
2016-01-21T04:02:32.996Z,17.84
2016-01-21T04:03:33.030Z,17.79
2016-01-21T04:04:33.080Z,17.82
2016-01-21T04:05:33.114Z,17.79
2016-01-21T04:06:33.163Z,17.82
2016-01-21T04:07:33.196Z,17.85
2016-01-21T04:08:33.232Z,17.79
2016-01-21T04:09:33.265Z,17.92
2016-01-21T04:10:33.315Z,17.76
2016-01-21T04:11:33.348Z,17.81
2016-01-21T04:12:33.242Z,17.77
2016-01-21T04:13:33.432Z,17.79
2016-01-21T04:14:33.466Z,17.81
2016-01-21T04:15:33.500Z,17.84
2016-01-21T04:16:33.550Z,17.85
2016-01-21T04:17:33.568Z,17.81
2016-01-21T04:18:33.476Z,17.74
2016-01-21T04:19:33.651Z,17.89
2016-01-21T04:20:33.701Z,17.81
2016-01-21T04:21:33.735Z,17.74
2016-01-21T04:22:33.785Z,17.81
2016-01-21T04:23:33.803Z,17.81
2016-01-21T04:24:33.852Z,17.81
2016-01-21T04:25:33.870Z,17.73
2016-01-21T04:26:33.905Z,17.82
2016-01-21T04:27:34.267Z,17.87
2016-01-21T04:28:34.019Z,17.87
2016-01-21T04:29:34.069Z,17.84
2016-01-21T04:30:34.088Z,17.82
2016-01-21T04:31:34.106Z,17.88
2016-01-21T04:32:34.155Z,17.84
2016-01-21T04:33:34.189Z,17.85
2016-01-21T04:34:34.239Z,17.84
2016-01-21T04:35:34.288Z,17.87
2016-01-21T04:36:34.307Z,17.87
2016-01-21T04:37:34.543Z,17.89
2016-01-21T04:38:34.390Z,17.89
2016-01-21T04:39:34.440Z,17.95
2016-01-21T04:40:34.474Z,17.88
2016-01-21T04:41:34.508Z,17.94
2016-01-21T04:42:34.541Z,17.92
2016-01-21T04:43:34.576Z,17.94
2016-01-21T04:44:34.626Z,18
2016-01-21T04:45:34.660Z,17.94
2016-01-21T04:46:34.959Z,17.91
2016-01-21T04:47:34.774Z,17.91
2016-01-21T04:48:34.776Z,17.94
2016-01-21T04:49:34.810Z,17.91
2016-01-21T04:50:34.859Z,17.92
2016-01-21T04:51:34.879Z,18
2016-01-21T04:52:34.928Z,17.96
2016-01-21T04:53:34.962Z,17.92
2016-01-21T04:54:35.027Z,17.92
2016-01-21T04:55:35.030Z,17.88
2016-01-21T04:56:35.079Z,17.92
2016-01-21T04:57:35.129Z,17.96
2016-01-21T04:58:35.163Z,17.91
2016-01-21T04:59:35.197Z,18
2016-01-21T05:00:35.231Z,17.88
2016-01-21T05:01:35.281Z,17.94
2016-01-21T05:02:35.314Z,17.95
2016-01-21T05:03:35.347Z,17.94
2016-01-21T05:04:35.382Z,17.91
2016-01-21T05:05:35.463Z,17.94
2016-01-21T05:06:35.513Z,17.92
2016-01-21T05:07:35.500Z,17.95
2016-01-21T05:08:35.549Z,18.03
2016-01-21T05:09:35.582Z,17.96
2016-01-21T05:10:35.633Z,17.98
2016-01-21T05:11:35.666Z,17.96
2016-01-21T05:12:35.701Z,17.92
2016-01-21T05:13:35.735Z,17.96
2016-01-21T05:14:35.784Z,17.96
2016-01-21T05:15:35.818Z,17.98
2016-01-21T05:16:35.867Z,17.96
2016-01-21T05:17:35.902Z,18
2016-01-21T05:18:35.935Z,17.95
2016-01-21T05:19:35.970Z,17.95
2016-01-21T05:20:36.004Z,17.92
2016-01-21T05:21:36.053Z,18.02
2016-01-21T05:22:36.087Z,17.92
2016-01-21T05:23:36.120Z,17.92
2016-01-21T05:24:36.154Z,17.95
2016-01-21T05:25:36.204Z,17.94
2016-01-21T05:26:36.239Z,17.88
2016-01-21T05:27:36.287Z,17.87
2016-01-21T05:28:36.337Z,17.89
2016-01-21T05:29:36.356Z,17.91
2016-01-21T05:30:36.406Z,17.89
2016-01-21T05:31:36.439Z,17.82
2016-01-21T05:32:36.472Z,17.79
2016-01-21T05:33:36.507Z,17.82
2016-01-21T05:34:36.541Z,17.85
2016-01-21T05:35:36.591Z,17.92
2016-01-21T05:36:36.640Z,17.94
2016-01-21T05:37:36.674Z,18.06
2016-01-21T05:38:36.708Z,18.13
2016-01-21T05:39:36.741Z,18.19
2016-01-21T05:40:36.776Z,18.13
2016-01-21T05:41:36.825Z,18.16
2016-01-21T05:42:36.874Z,18.14
2016-01-21T05:43:36.909Z,18.25
2016-01-21T05:44:36.943Z,18.21
2016-01-21T05:45:36.977Z,18.22
2016-01-21T05:46:37.027Z,18.29
2016-01-21T05:47:37.060Z,18.24
2016-01-21T05:48:37.094Z,18.25
2016-01-21T05:49:37.159Z,18.28
2016-01-21T05:50:37.178Z,18.29
2016-01-21T05:51:37.212Z,18.28
2016-01-21T05:52:37.262Z,18.27
2016-01-21T05:53:37.312Z,18.22
2016-01-21T05:54:37.328Z,18.24
2016-01-21T05:55:37.395Z,18.28
2016-01-21T05:56:37.397Z,18.22
2016-01-21T05:57:37.447Z,18.21
2016-01-21T05:58:37.495Z,18.27
2016-01-21T05:59:37.530Z,18.22
2016-01-21T06:00:37.580Z,18.21
2016-01-21T06:01:37.614Z,18.24
2016-01-21T06:02:37.648Z,18.16
2016-01-21T06:03:37.681Z,18.14
2016-01-21T06:04:37.730Z,18.37
2016-01-21T06:05:37.780Z,18.61
2016-01-21T06:06:37.784Z,18.59
2016-01-21T06:07:37.849Z,18.8
2016-01-21T06:08:37.866Z,18.84
2016-01-21T06:09:37.916Z,19.02
2016-01-21T06:10:37.982Z,19.13
2016-01-21T06:11:38.015Z,19.11
2016-01-21T06:12:38.033Z,19.23
2016-01-21T06:13:38.083Z,19.17
2016-01-21T06:14:38.133Z,19.14
2016-01-21T06:15:38.152Z,19.15
2016-01-21T06:16:38.201Z,19.24
2016-01-21T06:17:38.251Z,19.35
2016-01-21T06:18:38.268Z,19.28
2016-01-21T06:19:38.334Z,19.36
2016-01-21T06:20:38.352Z,19.36
2016-01-21T06:21:38.401Z,19.4
2016-01-21T06:22:38.435Z,19.43
2016-01-21T06:23:38.485Z,19.32
2016-01-21T06:24:38.534Z,19.5
2016-01-21T06:25:38.568Z,19.38
2016-01-21T06:26:38.587Z,19.38
2016-01-21T06:27:38.653Z,19.36
2016-01-21T06:28:38.686Z,19.53
2016-01-21T06:29:38.720Z,19.51
2016-01-21T06:30:38.753Z,19.4
2016-01-21T06:31:38.820Z,19.42
2016-01-21T06:32:38.837Z,19.51
2016-01-21T06:33:38.903Z,19.43
2016-01-21T06:34:38.922Z,19.43
2016-01-21T06:35:38.939Z,19.39
2016-01-21T06:36:39.005Z,19.53
2016-01-21T06:37:39.039Z,19.54
2016-01-21T06:38:39.103Z,19.48
2016-01-21T06:39:39.106Z,19.5
2016-01-21T06:40:39.171Z,19.45
2016-01-21T06:41:39.190Z,19.51
2016-01-21T06:42:39.271Z,19.6
2016-01-21T06:43:39.288Z,19.6
2016-01-21T06:44:39.323Z,19.6
2016-01-21T06:45:39.341Z,19.54
2016-01-21T06:46:39.391Z,19.48
2016-01-21T06:47:39.457Z,19.51
2016-01-21T06:48:39.474Z,19.53
2016-01-21T06:49:39.508Z,19.48
2016-01-21T06:50:39.557Z,19.5
2016-01-21T06:51:39.592Z,19.48
2016-01-21T06:52:39.657Z,19.54
2016-01-21T06:53:39.676Z,19.48
2016-01-21T06:54:39.725Z,19.46
2016-01-21T06:55:39.759Z,19.5
2016-01-21T06:56:39.809Z,19.45
2016-01-21T06:57:39.826Z,19.39
2016-01-21T06:58:39.892Z,19.33
2016-01-21T06:59:39.910Z,19.4
2016-01-21T07:00:39.976Z,19.33
2016-01-21T07:01:40.009Z,19.33
2016-01-21T07:02:40.043Z,19.35
2016-01-21T07:03:40.062Z,19.42
2016-01-21T07:04:40.111Z,19.36
2016-01-21T07:05:40.161Z,19.28
2016-01-21T07:06:40.225Z,19.4
2016-01-21T07:07:40.245Z,19.35
2016-01-21T07:08:40.277Z,19.36
2016-01-21T07:09:40.311Z,19.28
2016-01-21T07:10:40.361Z,19.25
2016-01-21T07:11:40.396Z,19.31
2016-01-21T07:12:40.445Z,19.38
2016-01-21T07:13:40.479Z,19.42
2016-01-21T07:14:40.529Z,19.28
2016-01-21T07:15:40.562Z,19.39
2016-01-21T07:16:40.613Z,19.32
2016-01-21T07:17:40.630Z,19.27
2016-01-21T07:18:40.696Z,19.32
2016-01-21T07:19:40.713Z,19.32
2016-01-21T07:20:40.763Z,19.27
2016-01-21T07:21:40.798Z,19.24
2016-01-21T07:22:40.863Z,19.32
2016-01-21T07:23:40.881Z,19.27
2016-01-21T07:24:40.915Z,19.25
2016-01-21T07:25:40.965Z,19.13
2016-01-21T07:26:40.999Z,19.24
2016-01-21T07:27:41.048Z,19.28
2016-01-21T07:28:41.081Z,19.27
2016-01-21T07:29:41.115Z,19.17
2016-01-21T07:30:41.151Z,19.13
2016-01-21T07:31:41.214Z,19.17
2016-01-21T07:32:41.234Z,19.17
2016-01-21T07:33:41.283Z,19.11
2016-01-21T07:34:41.317Z,19.13
2016-01-21T07:35:41.367Z,19.14
2016-01-21T07:36:41.400Z,19.13
2016-01-21T07:37:41.434Z,19.11
2016-01-21T07:38:41.483Z,19.08
2016-01-21T07:39:41.517Z,19.11
2016-01-21T07:40:41.567Z,19.15
2016-01-21T07:41:41.616Z,18.99
2016-01-21T07:42:41.619Z,19.05
2016-01-21T07:43:41.700Z,19.06
2016-01-21T07:44:41.719Z,19.06
2016-01-21T07:45:41.769Z,19.02
2016-01-21T07:46:41.786Z,19.01
2016-01-21T07:47:41.852Z,19.01
2016-01-21T07:48:41.885Z,19.08
2016-01-21T07:49:41.919Z,19.02
2016-01-21T07:50:41.969Z,19.06
2016-01-21T07:51:41.987Z,18.98
2016-01-21T07:52:42.037Z,18.99
2016-01-21T07:53:42.071Z,19.06
2016-01-21T07:54:42.104Z,19.06
2016-01-21T07:55:42.154Z,19.09
2016-01-21T07:56:42.204Z,19.06
2016-01-21T07:57:42.223Z,19.02
2016-01-21T07:58:42.272Z,19.05
2016-01-21T07:59:42.337Z,19.09
2016-01-21T08:00:42.340Z,19.11
2016-01-21T08:01:42.390Z,19.05
2016-01-21T08:02:42.439Z,19.14
2016-01-21T08:03:42.457Z,19.17
2016-01-21T08:04:42.506Z,19.14
2016-01-21T08:05:42.541Z,19.17
2016-01-21T08:06:42.590Z,19.2
2016-01-21T08:07:42.609Z,19.15
2016-01-21T08:08:42.674Z,19.21
2016-01-21T08:09:42.692Z,19.27
2016-01-21T08:10:42.758Z,19.25
2016-01-21T08:11:42.792Z,19.38
2016-01-21T08:12:42.825Z,19.31
2016-01-21T08:13:42.859Z,19.31
2016-01-21T08:14:42.908Z,19.27
2016-01-21T08:15:42.943Z,19.35
2016-01-21T08:16:42.977Z,19.32
2016-01-21T08:17:43.041Z,19.27
2016-01-21T08:18:43.061Z,19.28
2016-01-21T08:19:43.110Z,19.28
2016-01-21T08:20:43.127Z,19.23
2016-01-21T08:21:43.177Z,19.24
2016-01-21T08:22:43.212Z,19.24
2016-01-21T08:23:43.277Z,19.24
2016-01-21T08:24:43.310Z,19.13
2016-01-21T08:25:43.345Z,19.14
2016-01-21T08:26:43.220Z,19.17
2016-01-21T08:27:43.426Z,19.14
2016-01-21T08:28:43.460Z,19.18
2016-01-21T08:29:43.494Z,19.2
2016-01-21T08:30:43.746Z,19.2
2016-01-21T08:31:44.046Z,19.18
2016-01-21T08:32:44.001Z,19.14
2016-01-21T08:33:43.989Z,19.15
2016-01-21T08:34:44.382Z,19.2
2016-01-21T08:35:43.745Z,19.14
2016-01-21T08:36:43.762Z,19.15
2016-01-21T08:37:43.829Z,19.11
2016-01-21T08:38:43.845Z,19.09
2016-01-21T08:39:43.912Z,19.09
2016-01-21T08:40:43.961Z,19.13
2016-01-21T08:41:43.995Z,19.13
2016-01-21T08:42:44.014Z,19.17
2016-01-21T08:43:44.047Z,19.02
2016-01-21T08:44:44.112Z,19.02
2016-01-21T08:45:44.131Z,18.99
2016-01-21T08:46:44.181Z,19.05
2016-01-21T08:47:44.199Z,19.17
2016-01-21T08:48:44.264Z,19.02
2016-01-21T08:49:44.298Z,18.99
2016-01-21T08:50:44.348Z,19.14
2016-01-21T08:51:44.366Z,19.11
2016-01-21T08:52:44.431Z,19.15
2016-01-21T08:53:44.450Z,19.14
2016-01-21T08:54:44.484Z,19.15
2016-01-21T08:55:44.549Z,19.17
2016-01-21T08:56:44.568Z,19.15
2016-01-21T08:57:44.617Z,19.21
2016-01-21T08:58:44.651Z,19.18
2016-01-21T08:59:44.685Z,19.17
2016-01-21T09:00:44.734Z,19.2
2016-01-21T09:01:44.769Z,19.17
2016-01-21T09:02:44.819Z,19.17
2016-01-21T09:03:44.836Z,19.25
2016-01-21T09:04:44.886Z,19.06
2016-01-21T09:05:44.919Z,17.7
2016-01-21T09:06:44.970Z,15.82
2016-01-21T09:07:44.989Z,14.38
2016-01-21T09:08:45.038Z,13.56
2016-01-21T09:09:45.088Z,13
2016-01-21T09:10:45.137Z,12.23
2016-01-21T09:11:45.155Z,12.33
2016-01-21T09:12:45.189Z,13.18
2016-01-21T09:13:45.223Z,14.34
2016-01-21T09:14:45.272Z,15.21
2016-01-21T09:15:45.307Z,15.92
2016-01-21T09:16:45.591Z,16.44
2016-01-21T09:17:45.375Z,16.84
2016-01-21T09:18:45.409Z,17.17
2016-01-21T09:19:45.443Z,17.4
2016-01-21T09:20:45.476Z,17.54
2016-01-21T09:21:45.526Z,17.58
2016-01-21T09:22:45.576Z,17.76
2016-01-21T09:23:45.610Z,17.92
2016-01-21T09:24:45.643Z,17.95
2016-01-21T09:25:45.771Z,18.14
2016-01-21T09:26:45.727Z,18.34
2016-01-21T09:27:45.761Z,18.53
2016-01-21T09:28:45.779Z,18.74
2016-01-21T09:29:45.812Z,18.95
2016-01-21T09:30:45.879Z,19.14
2016-01-21T09:31:45.912Z,19.35
2016-01-21T09:32:45.933Z,19.51
2016-01-21T09:33:45.953Z,19.55
2016-01-21T09:34:45.988Z,19.68
2016-01-21T09:35:46.021Z,19.83
2016-01-21T09:36:46.024Z,19.78
2016-01-21T09:37:46.084Z,19.86
2016-01-21T09:38:46.096Z,20.08
2016-01-21T09:39:46.140Z,20.09
2016-01-21T09:40:46.169Z,20.16
2016-01-21T09:41:46.213Z,20.15
2016-01-21T09:42:46.230Z,20.26
2016-01-21T09:43:46.293Z,20.3
2016-01-21T09:44:46.309Z,20.38
2016-01-21T09:45:46.340Z,20.26
2016-01-21T09:46:46.388Z,20.5
2016-01-21T09:47:46.656Z,20.4
2016-01-21T09:48:47.611Z,20.61
2016-01-21T09:49:47.472Z,20.53
2016-01-21T09:50:47.146Z,20.68
2016-01-21T09:51:46.601Z,20.64
2016-01-21T09:52:46.619Z,20.65
2016-01-21T09:53:46.669Z,20.62
2016-01-21T09:54:46.703Z,20.61
2016-01-21T09:55:46.753Z,20.71
2016-01-21T09:56:46.786Z,20.61
2016-01-21T09:57:46.820Z,20.68
2016-01-21T09:58:46.855Z,20.76
2016-01-21T09:59:46.920Z,20.87
2016-01-21T10:00:47.203Z,20.82
2016-01-21T10:01:47.002Z,20.84
2016-01-21T10:02:47.022Z,20.84
2016-01-21T10:03:47.071Z,20.86
2016-01-21T10:04:47.121Z,20.76
2016-01-21T10:05:47.155Z,20.79
2016-01-21T10:06:47.189Z,20.84
2016-01-21T10:07:47.222Z,20.83
2016-01-21T10:08:47.271Z,20.83
2016-01-21T10:09:47.305Z,20.71
2016-01-21T10:10:47.355Z,20.72
2016-01-21T10:11:47.390Z,20.75
2016-01-21T10:12:47.424Z,20.65
2016-01-21T10:13:47.473Z,20.56
2016-01-21T10:14:47.523Z,20.62
2016-01-21T10:15:47.557Z,20.56
2016-01-21T10:16:47.606Z,20.54
2016-01-21T10:17:47.640Z,20.47
2016-01-21T10:18:47.862Z,20.49
2016-01-21T10:19:47.705Z,20.4
2016-01-21T10:20:47.771Z,20.42
2016-01-21T10:21:47.790Z,20.51
2016-01-21T10:22:47.854Z,20.56
2016-01-21T10:23:47.873Z,20.42
2016-01-21T10:24:47.922Z,20.34
2016-01-21T10:25:47.956Z,20.42
2016-01-21T10:26:48.020Z,20.27
2016-01-21T10:27:48.056Z,20.26
2016-01-21T10:28:48.089Z,20.33
2016-01-21T10:29:48.122Z,20.24
2016-01-21T10:30:48.173Z,20.26
2016-01-21T10:31:48.191Z,20.16
2016-01-21T10:32:48.240Z,20.12
2016-01-21T10:33:48.274Z,20.09
2016-01-21T10:34:48.339Z,20.15
2016-01-21T10:35:48.358Z,20.08
2016-01-21T10:36:48.407Z,20.05
2016-01-21T10:37:48.457Z,20.03
2016-01-21T10:38:48.491Z,19.98
2016-01-21T10:39:48.524Z,20
2016-01-21T10:40:48.419Z,19.98
2016-01-21T10:41:48.593Z,19.93
2016-01-21T10:42:48.642Z,19.95
2016-01-21T10:43:48.692Z,19.91
2016-01-21T10:44:48.726Z,19.91
2016-01-21T10:45:48.775Z,19.91
2016-01-21T10:46:48.825Z,19.86
2016-01-21T10:47:48.843Z,19.88
2016-01-21T10:48:48.893Z,19.8
2016-01-21T10:49:48.943Z,19.94
2016-01-21T10:50:48.976Z,19.97
2016-01-21T10:51:49.010Z,19.87
2016-01-21T10:52:49.044Z,19.93
2016-01-21T10:53:49.094Z,19.91
2016-01-21T10:54:49.456Z,19.82
2016-01-21T10:55:49.192Z,19.93
2016-01-21T10:56:49.211Z,19.97
2016-01-21T10:57:50.198Z,19.82
2016-01-21T10:58:49.529Z,19.8
2016-01-21T10:59:49.345Z,19.88
2016-01-21T11:00:49.363Z,19.78
2016-01-21T11:01:49.413Z,19.78
2016-01-21T11:02:49.462Z,19.78
2016-01-21T11:03:49.481Z,19.71
2016-01-21T11:04:49.515Z,19.71
2016-01-21T11:05:49.580Z,19.65
2016-01-21T11:06:49.630Z,19.64
2016-01-21T11:07:49.664Z,19.69
2016-01-21T11:08:49.682Z,19.68
2016-01-21T11:09:49.731Z,19.6
2016-01-21T11:10:49.766Z,19.68
2016-01-21T11:11:49.832Z,19.65
2016-01-21T11:12:50.068Z,19.58
2016-01-21T11:13:49.898Z,19.61
2016-01-21T11:14:49.933Z,19.6
2016-01-21T11:15:49.968Z,19.6
2016-01-21T11:16:50.031Z,19.48
2016-01-21T11:17:50.066Z,19.51
2016-01-21T11:18:50.115Z,19.51
2016-01-21T11:19:50.134Z,19.46
2016-01-21T11:20:50.184Z,19.48
2016-01-21T11:21:50.233Z,19.51
2016-01-21T11:22:50.267Z,19.48
2016-01-21T11:23:50.301Z,19.46
2016-01-21T11:24:50.335Z,19.58
2016-01-21T11:25:50.384Z,19.55
2016-01-21T11:26:50.419Z,19.63
2016-01-21T11:27:50.453Z,19.68
2016-01-21T11:28:50.799Z,19.75
2016-01-21T11:29:50.537Z,19.78
2016-01-21T11:30:50.586Z,19.83
2016-01-21T11:31:50.605Z,19.8
2016-01-21T11:32:50.654Z,19.9
2016-01-21T11:33:50.688Z,19.91
2016-01-21T11:34:50.738Z,19.94
2016-01-21T11:35:50.777Z,19.95
2016-01-21T11:36:50.827Z,19.91
2016-01-21T11:37:50.860Z,19.95
2016-01-21T11:38:50.925Z,20.05
2016-01-21T11:39:50.959Z,20
2016-01-21T11:40:50.993Z,19.93
2016-01-21T11:41:51.043Z,19.79
2016-01-21T11:42:51.064Z,19.86
2016-01-21T11:43:51.099Z,19.9
2016-01-21T11:44:51.147Z,19.95
2016-01-21T11:45:51.292Z,19.83
2016-01-21T11:46:51.216Z,19.88
2016-01-21T11:47:51.265Z,19.91
2016-01-21T11:48:51.299Z,19.93
2016-01-21T11:49:51.349Z,19.88
2016-01-21T11:50:51.383Z,19.9
2016-01-21T11:51:51.417Z,19.79
2016-01-21T11:52:51.466Z,19.82
2016-01-21T11:53:51.516Z,19.79
2016-01-21T11:54:51.550Z,19.8
2016-01-21T11:55:51.600Z,19.83
2016-01-21T11:56:51.618Z,19.78
2016-01-21T11:57:52.057Z,19.72
2016-01-21T11:58:51.810Z,19.78
2016-01-21T11:59:52.235Z,19.86
2016-01-21T12:00:52.316Z,19.72
2016-01-21T12:01:51.835Z,19.78
2016-01-21T12:02:51.713Z,19.79
2016-01-21T12:03:52.127Z,19.83
2016-01-21T12:04:51.943Z,19.78
2016-01-21T12:05:51.992Z,19.73
2016-01-21T12:06:52.026Z,19.69
2016-01-21T12:07:52.091Z,19.71
2016-01-21T12:08:52.110Z,19.69
2016-01-21T12:09:52.143Z,19.69
2016-01-21T12:10:52.177Z,19.63
2016-01-21T12:11:52.226Z,19.63
2016-01-21T12:12:52.261Z,19.51
2016-01-21T12:13:52.310Z,19.58
2016-01-21T12:14:52.359Z,19.57
2016-01-21T12:15:52.379Z,19.55
2016-01-21T12:16:52.412Z,19.5
2016-01-21T12:17:52.462Z,19.53
2016-01-21T12:18:52.512Z,19.53
2016-01-21T12:19:52.561Z,19.68
2016-01-21T12:20:52.595Z,19.64
2016-01-21T12:21:52.614Z,19.65
2016-01-21T12:22:52.678Z,19.64
2016-01-21T12:23:52.728Z,19.61
2016-01-21T12:24:52.761Z,19.53
2016-01-21T12:25:52.796Z,19.6
2016-01-21T12:26:52.814Z,19.61
2016-01-21T12:27:52.972Z,19.61
2016-01-21T12:28:52.910Z,19.63
2016-01-21T12:29:52.945Z,19.65
2016-01-21T12:30:52.994Z,19.76
2016-01-21T12:31:53.013Z,19.82
2016-01-21T12:32:53.062Z,19.83
2016-01-21T12:33:53.128Z,19.86
2016-01-21T12:34:53.161Z,19.86
2016-01-21T12:35:53.195Z,19.76
2016-01-21T12:36:53.230Z,19.75
2016-01-21T12:37:53.279Z,19.76
2016-01-21T12:38:53.313Z,19.73
2016-01-21T12:39:53.346Z,19.69
2016-01-21T12:40:53.396Z,19.78
2016-01-21T12:41:53.430Z,19.76
2016-01-21T12:42:53.479Z,19.75
2016-01-21T12:43:53.513Z,19.78
2016-01-21T12:44:53.532Z,19.87
2016-01-21T12:45:53.598Z,19.87
2016-01-21T12:46:53.631Z,19.91
2016-01-21T12:47:53.681Z,19.93
2016-01-21T12:48:53.715Z,19.98
2016-01-21T12:49:53.764Z,20.03
2016-01-21T12:50:53.829Z,20.01
2016-01-21T12:51:53.831Z,20.05
2016-01-21T12:52:53.897Z,20.03
2016-01-21T12:53:53.915Z,20.05
2016-01-21T12:54:53.965Z,20.08
2016-01-21T12:55:53.984Z,20.18
2016-01-21T12:56:54.049Z,20.18